Time;durP1;ratioP1;P1;durP2;ratioP2;P2;SDS_P1;SDS_P2;PMS_P1;PMS_P2;Temp;Humidity;BMP_temperature;BMP_pressure;BME280_temperature;BME280_humidity;BME280_pressure;Samples;Min_cycle;Max_cycle;Signal;HPM_P1;HPM_P2
2021/10/10 00:00:30;;;;;;;14.80;8.80;;;6.50;99.90;;;;;;5071891;28;20229;-65
2021/10/10 00:02:56;;;;;;;15.53;8.90;;;6.40;99.90;;;;;;5074698;28;20220;-65
2021/10/10 00:05:23;;;;;;;14.73;8.57;;;6.50;99.90;;;;;;5076001;28;20208;-65
2021/10/10 00:07:50;;;;;;;14.93;8.30;;;6.40;99.90;;;;;;5076780;28;20212;-66
2021/10/10 00:10:17;;;;;;;12.77;8.83;;;6.50;99.90;;;;;;5076344;28;20228;-66
2021/10/10 00:12:45;;;;;;;13.33;8.40;;;6.40;99.90;;;;;;5077018;28;20236;-63
2021/10/10 00:15:13;;;;;;;11.17;8.30;;;6.30;99.90;;;;;;5076421;28;20683;-63
2021/10/10 00:17:42;;;;;;;12.17;7.90;;;6.20;99.90;;;;;;5076104;28;20205;-64
2021/10/10 00:20:10;;;;;;;12.63;7.67;;;6.10;99.90;;;;;;5075410;28;20292;-64
2021/10/10 00:22:37;;;;;;;13.27;8.13;;;6.10;99.90;;;;;;5075116;28;20436;-65
2021/10/10 00:25:04;;;;;;;10.47;7.63;;;6.10;99.90;;;;;;5074666;28;20225;-65
2021/10/10 00:27:31;;;;;;;10.47;8.03;;;6.10;99.90;;;;;;5074919;28;20669;-65
2021/10/10 00:30:00;;;;;;;11.83;8.13;;;6.20;99.90;;;;;;5075070;28;20216;-66
2021/10/10 00:32:26;;;;;;;14.90;7.97;;;6.20;99.90;;;;;;5075649;28;20212;-64
2021/10/10 00:34:54;;;;;;;11.40;7.97;;;6.20;99.90;;;;;;5074870;28;20613;-66
2021/10/10 00:37:21;;;;;;;12.23;8.07;;;6.30;99.90;;;;;;5075069;28;20213;-64
2021/10/10 00:39:48;;;;;;;11.57;7.63;;;6.30;99.90;;;;;;5075182;28;20212;-65
2021/10/10 00:42:14;;;;;;;11.03;7.60;;;6.30;99.90;;;;;;5074849;28;20236;-65
2021/10/10 00:44:44;;;;;;;11.53;8.17;;;6.30;99.90;;;;;;5074863;28;20231;-65
2021/10/10 00:47:11;;;;;;;11.87;8.13;;;6.30;99.90;;;;;;5074938;28;20672;-64
2021/10/10 00:49:38;;;;;;;12.70;9.00;;;6.30;99.90;;;;;;5074787;28;20229;-65
2021/10/10 00:52:08;;;;;;;12.10;8.13;;;6.30;99.90;;;;;;5074686;28;20225;-64
2021/10/10 00:54:36;;;;;;;12.73;8.10;;;6.30;99.90;;;;;;5074920;28;20201;-64
2021/10/10 00:57:07;;;;;;;9.43;6.90;;;6.30;99.90;;;;;;5074539;28;20270;-63
2021/10/10 00:59:37;;;;;;;10.73;8.00;;;6.30;99.90;;;;;;5074981;28;20205;-64
2021/10/10 01:02:04;;;;;;;11.23;7.90;;;6.30;99.90;;;;;;5075276;28;20225;-66
2021/10/10 01:04:31;;;;;;;12.20;8.27;;;6.20;99.90;;;;;;5074472;28;20727;-66
2021/10/10 01:07:00;;;;;;;12.83;7.93;;;6.20;99.90;;;;;;5075798;28;20213;-65
2021/10/10 01:09:28;;;;;;;12.60;7.70;;;6.20;99.90;;;;;;5074886;28;20209;-65
2021/10/10 01:11:57;;;;;;;12.83;8.37;;;6.20;99.90;;;;;;5074404;28;20712;-65
2021/10/10 01:14:25;;;;;;;13.87;8.47;;;6.20;99.90;;;;;;5074213;28;20281;-65
2021/10/10 01:16:51;;;;;;;11.53;7.63;;;6.20;99.90;;;;;;5074802;28;20274;-65
2021/10/10 01:19:18;;;;;;;9.77;7.80;;;6.10;99.90;;;;;;5074558;28;20205;-65
2021/10/10 01:21:46;;;;;;;11.13;7.90;;;6.10;99.90;;;;;;5074479;28;20250;-64
2021/10/10 01:24:13;;;;;;;12.20;8.17;;;6.00;99.90;;;;;;5073707;28;20252;-64
2021/10/10 01:26:40;;;;;;;10.83;8.20;;;6.00;99.90;;;;;;5073970;28;20201;-65
2021/10/10 01:29:06;;;;;;;11.57;7.90;;;6.00;99.90;;;;;;5074122;28;20614;-66
2021/10/10 01:31:33;;;;;;;11.33;8.17;;;5.90;99.90;;;;;;5072643;28;20237;-64
2021/10/10 01:34:00;;;;;;;11.67;8.73;;;6.00;99.90;;;;;;5072216;28;20665;-65
2021/10/10 01:36:26;;;;;;;13.00;7.93;;;6.00;99.90;;;;;;5072587;28;20205;-65
2021/10/10 01:38:54;;;;;;;11.07;8.20;;;6.00;99.90;;;;;;5073618;28;20213;-65
2021/10/10 01:41:21;;;;;;;12.00;7.80;;;5.90;99.90;;;;;;5074016;28;20232;-65
2021/10/10 01:43:48;;;;;;;11.70;8.03;;;6.00;99.90;;;;;;5072893;28;20232;-63
2021/10/10 01:46:14;;;;;;;13.70;7.43;;;5.90;99.90;;;;;;5072641;28;20201;-64
2021/10/10 01:48:41;;;;;;;10.67;7.97;;;5.90;99.90;;;;;;5073013;28;20209;-66
2021/10/10 01:51:08;;;;;;;12.70;7.87;;;5.90;99.90;;;;;;5072846;28;20228;-64
2021/10/10 01:53:34;;;;;;;11.40;7.77;;;5.90;99.90;;;;;;5072799;28;20205;-66
2021/10/10 01:56:02;;;;;;;13.43;8.57;;;5.90;99.90;;;;;;5072826;28;20212;-66
2021/10/10 01:58:29;;;;;;;10.63;8.07;;;5.90;99.90;;;;;;5072749;28;20201;-65
2021/10/10 02:00:57;;;;;;;14.13;8.13;;;5.80;99.90;;;;;;5072357;28;20229;-64
2021/10/10 02:03:24;;;;;;;11.60;8.27;;;5.90;99.90;;;;;;5072124;28;20209;-64
2021/10/10 02:05:51;;;;;;;12.60;8.13;;;5.80;99.90;;;;;;5072713;28;20676;-63
2021/10/10 02:08:18;;;;;;;14.97;8.37;;;5.90;99.90;;;;;;5071916;28;20216;-64
2021/10/10 02:10:45;;;;;;;11.43;7.87;;;5.90;99.90;;;;;;5072051;28;20225;-63
2021/10/10 02:13:13;;;;;;;14.30;8.53;;;5.90;99.90;;;;;;5072179;28;20738;-65
2021/10/10 02:15:40;;;;;;;14.30;8.13;;;5.80;99.90;;;;;;5072736;28;20205;-65
2021/10/10 02:18:08;;;;;;;10.47;7.57;;;5.70;99.90;;;;;;5072310;28;20348;-64
2021/10/10 02:20:35;;;;;;;12.03;7.90;;;5.60;99.90;;;;;;5073932;28;20239;-64
2021/10/10 02:23:02;;;;;;;12.43;8.23;;;5.40;99.90;;;;;;5073835;28;20208;-64
2021/10/10 02:25:29;;;;;;;10.03;7.80;;;5.40;99.90;;;;;;5070463;28;20258;-65
2021/10/10 02:27:56;;;;;;;12.03;7.70;;;5.40;99.90;;;;;;5071093;28;20626;-64
2021/10/10 02:30:24;;;;;;;11.53;7.97;;;5.30;99.90;;;;;;5035665;28;1033307;-64
2021/10/10 02:32:51;;;;;;;12.17;8.20;;;5.30;99.90;;;;;;5072642;28;20220;-64
2021/10/10 02:35:17;;;;;;;9.10;7.27;;;5.30;99.90;;;;;;5072315;28;20212;-64
2021/10/10 02:37:44;;;;;;;11.30;8.40;;;5.30;99.90;;;;;;5072483;28;20205;-63
2021/10/10 02:40:12;;;;;;;11.90;7.90;;;5.40;99.90;;;;;;5071951;28;20201;-64
2021/10/10 02:42:39;;;;;;;13.33;8.33;;;5.30;99.90;;;;;;5072008;28;20265;-64
2021/10/10 02:45:07;;;;;;;9.77;7.90;;;5.30;99.90;;;;;;5071972;28;20224;-64
2021/10/10 02:47:35;;;;;;;9.90;7.43;;;5.20;99.90;;;;;;5072026;28;20209;-64
2021/10/10 02:50:03;;;;;;;12.83;7.67;;;5.10;99.90;;;;;;5071757;28;20219;-64
2021/10/10 02:52:29;;;;;;;9.60;7.87;;;5.00;99.90;;;;;;5072013;28;20205;-63
2021/10/10 02:54:56;;;;;;;11.97;8.03;;;5.00;99.90;;;;;;5071800;28;20197;-63
2021/10/10 02:57:23;;;;;;;9.43;7.37;;;5.00;99.90;;;;;;5072413;28;20209;-64
2021/10/10 02:59:49;;;;;;;12.00;7.63;;;5.00;99.90;;;;;;5072260;28;20208;-64
2021/10/10 03:02:16;;;;;;;10.93;7.80;;;5.00;99.90;;;;;;5072795;28;20232;-63
2021/10/10 03:04:44;;;;;;;11.63;7.80;;;5.10;99.90;;;;;;5074763;28;20841;-62
2021/10/10 03:07:11;;;;;;;11.37;8.20;;;5.00;99.90;;;;;;5072786;28;20212;-63
2021/10/10 03:09:37;;;;;;;9.77;8.07;;;5.10;99.90;;;;;;5072267;28;20209;-64
2021/10/10 03:12:04;;;;;;;11.83;8.00;;;5.10;99.90;;;;;;5072719;28;20231;-64
2021/10/10 03:14:31;;;;;;;14.80;8.37;;;5.10;99.90;;;;;;5072271;28;20206;-64
2021/10/10 03:16:57;;;;;;;12.43;8.13;;;5.10;99.90;;;;;;5072421;28;20205;-63
2021/10/10 03:19:24;;;;;;;14.10;8.13;;;5.10;99.90;;;;;;5071807;28;20205;-64
2021/10/10 03:21:52;;;;;;;10.50;8.43;;;5.20;99.90;;;;;;5072270;28;20775;-64
2021/10/10 03:24:19;;;;;;;10.43;8.03;;;5.20;99.90;;;;;;5071766;28;20653;-64
2021/10/10 03:26:45;;;;;;;11.90;8.50;;;5.30;99.90;;;;;;5072316;28;20208;-64
2021/10/10 03:29:12;;;;;;;13.70;8.83;;;5.30;99.90;;;;;;5071937;28;20209;-66
2021/10/10 03:31:39;;;;;;;13.47;8.90;;;5.20;99.90;;;;;;5071650;28;20229;-64
2021/10/10 03:34:05;;;;;;;13.57;8.50;;;5.30;99.90;;;;;;5071909;28;20208;-65
2021/10/10 03:36:32;;;;;;;12.27;8.10;;;5.20;99.90;;;;;;5071532;28;20216;-64
2021/10/10 03:39:00;;;;;;;10.80;7.83;;;5.20;99.90;;;;;;5072212;28;20209;-64
2021/10/10 03:41:27;;;;;;;13.27;7.90;;;5.20;99.90;;;;;;5072738;28;20225;-63
2021/10/10 03:43:53;;;;;;;11.33;7.80;;;5.20;99.90;;;;;;5072247;28;20213;-65
2021/10/10 03:46:20;;;;;;;12.63;8.07;;;5.20;99.90;;;;;;5071955;28;20220;-63
2021/10/10 03:48:47;;;;;;;10.97;7.60;;;5.10;99.90;;;;;;5071641;28;20209;-63
2021/10/10 03:51:13;;;;;;;12.13;8.90;;;5.10;99.90;;;;;;5071084;28;20221;-63
2021/10/10 03:54:07;;;;;;;11.20;8.07;;;5.00;99.90;;;;;;5071290;28;20213;-63
2021/10/10 03:56:33;;;;;;;11.63;8.27;;;4.90;99.90;;;;;;5071526;28;20537;-64
2021/10/10 03:59:00;;;;;;;11.47;8.47;;;5.00;99.90;;;;;;5071300;28;20827;-64
2021/10/10 04:01:27;;;;;;;12.63;8.50;;;5.00;99.90;;;;;;5071388;28;20229;-65
2021/10/10 04:03:54;;;;;;;13.80;8.90;;;5.10;99.90;;;;;;5071481;28;20741;-65
2021/10/10 04:06:21;;;;;;;17.60;10.33;;;5.10;99.90;;;;;;5071060;28;20696;-63
2021/10/10 04:08:47;;;;;;;99.13;60.67;;;5.10;99.90;;;;;;5071098;28;20852;-63
2021/10/10 04:11:14;;;;;;;20.47;13.03;;;5.10;99.90;;;;;;5071218;28;20251;-65
2021/10/10 04:13:42;;;;;;;13.40;9.20;;;5.00;99.90;;;;;;5071086;28;20216;-64
2021/10/10 04:16:09;;;;;;;13.93;9.60;;;4.90;99.90;;;;;;5071303;28;20201;-64
2021/10/10 04:18:36;;;;;;;13.07;8.77;;;4.90;99.90;;;;;;5071491;28;20211;-64
2021/10/10 04:21:04;;;;;;;12.33;8.37;;;4.90;99.90;;;;;;5071200;28;20586;-63
2021/10/10 04:23:30;;;;;;;11.33;7.90;;;4.80;99.90;;;;;;5071079;28;20205;-63
2021/10/10 04:25:57;;;;;;;12.20;7.67;;;4.70;99.90;;;;;;5071430;28;20236;-64
2021/10/10 04:28:24;;;;;;;13.40;8.93;;;4.70;99.90;;;;;;5071674;28;20208;-64
2021/10/10 04:30:52;;;;;;;10.77;7.93;;;4.70;99.90;;;;;;5071716;28;20244;-64
2021/10/10 04:33:19;;;;;;;15.77;9.40;;;4.60;99.90;;;;;;5072523;28;20285;-63
2021/10/10 04:35:48;;;;;;;11.43;8.43;;;4.50;99.90;;;;;;5072534;28;20227;-62
2021/10/10 04:38:15;;;;;;;10.17;8.20;;;4.50;99.90;;;;;;5074169;28;20730;-63
2021/10/10 04:40:42;;;;;;;13.30;8.17;;;4.40;99.90;;;;;;5074812;28;20229;-65
2021/10/10 04:43:09;;;;;;;17.70;10.73;;;4.50;99.90;;;;;;5074294;28;20212;-65
2021/10/10 04:45:36;;;;;;;11.87;7.87;;;4.40;99.90;;;;;;5074189;28;20229;-65
2021/10/10 04:48:05;;;;;;;10.47;8.30;;;4.50;99.90;;;;;;5076086;28;20219;-63
2021/10/10 04:50:32;;;;;;;13.87;8.63;;;4.40;99.90;;;;;;5078294;28;20225;-64
2021/10/10 04:52:58;;;;;;;11.77;8.00;;;4.50;99.90;;;;;;5077009;28;20665;-63
2021/10/10 04:55:25;;;;;;;10.30;7.90;;;4.40;99.90;;;;;;5075214;28;20232;-63
2021/10/10 04:57:52;;;;;;;14.33;8.67;;;4.40;99.90;;;;;;5074666;28;20209;-63
2021/10/10 05:00:18;;;;;;;12.30;8.67;;;4.40;99.90;;;;;;5074817;28;20229;-64
2021/10/10 05:02:45;;;;;;;17.80;13.73;;;4.40;99.90;;;;;;5075369;28;20205;-64
2021/10/10 05:05:13;;;;;;;29.27;18.70;;;4.30;99.90;;;;;;5074508;28;20217;-63
2021/10/10 05:07:40;;;;;;;14.80;9.70;;;4.30;99.90;;;;;;5074190;28;20630;-63
2021/10/10 05:10:08;;;;;;;12.60;9.67;;;4.40;99.90;;;;;;5074220;28;20205;-64
2021/10/10 05:12:34;;;;;;;12.63;8.17;;;4.30;99.90;;;;;;5074444;28;20263;-64
2021/10/10 05:15:01;;;;;;;12.43;8.37;;;4.30;99.90;;;;;;5074141;28;20697;-64
2021/10/10 05:17:28;;;;;;;12.83;8.40;;;4.50;99.90;;;;;;5074582;28;20209;-63
2021/10/10 05:19:54;;;;;;;13.27;9.53;;;4.30;99.90;;;;;;5074544;28;20212;-64
2021/10/10 05:22:22;;;;;;;14.53;10.43;;;4.30;99.90;;;;;;5074728;28;20681;-64
2021/10/10 05:24:50;;;;;;;12.23;8.47;;;4.40;99.90;;;;;;5074303;28;20536;-64
2021/10/10 05:27:17;;;;;;;11.40;8.50;;;4.30;99.90;;;;;;5074332;28;20205;-63
2021/10/10 05:29:44;;;;;;;10.90;8.87;;;4.40;99.90;;;;;;5074252;28;20212;-64
2021/10/10 05:32:10;;;;;;;11.53;8.43;;;4.40;99.90;;;;;;5074283;28;20244;-64
2021/10/10 05:34:37;;;;;;;11.80;8.33;;;4.40;99.90;;;;;;5073854;28;20241;-64
2021/10/10 05:37:04;;;;;;;16.03;9.23;;;4.40;99.90;;;;;;5074016;28;20291;-64
2021/10/10 05:39:33;;;;;;;15.80;8.80;;;4.50;99.90;;;;;;5073645;28;20204;-64
2021/10/10 05:41:59;;;;;;;13.40;9.17;;;4.40;99.90;;;;;;5074236;28;20251;-63
2021/10/10 05:44:26;;;;;;;13.80;9.10;;;4.50;99.90;;;;;;5073794;28;20215;-63
2021/10/10 05:46:53;;;;;;;12.77;9.27;;;4.50;99.90;;;;;;5073808;28;20253;-64
2021/10/10 05:49:20;;;;;;;14.97;9.70;;;4.50;99.90;;;;;;5073544;28;20618;-65
2021/10/10 05:51:47;;;;;;;15.73;9.20;;;4.60;99.90;;;;;;5073593;28;20225;-63
2021/10/10 05:54:16;;;;;;;13.03;9.40;;;4.70;99.90;;;;;;5073607;28;20634;-64
2021/10/10 05:56:44;;;;;;;14.80;9.57;;;4.70;99.90;;;;;;5073519;28;20831;-63
2021/10/10 05:59:14;;;;;;;14.70;9.57;;;4.70;99.90;;;;;;5072465;28;20791;-64
2021/10/10 06:01:41;;;;;;;15.13;9.73;;;4.80;99.90;;;;;;5073353;28;20822;-63
2021/10/10 06:04:08;;;;;;;13.90;9.67;;;4.90;99.90;;;;;;5073348;28;20695;-65
2021/10/10 06:06:35;;;;;;;16.27;9.67;;;4.90;99.90;;;;;;5073393;28;20224;-64
2021/10/10 06:09:03;;;;;;;14.90;9.10;;;5.00;99.90;;;;;;5073430;28;20213;-64
2021/10/10 06:11:30;;;;;;;13.80;9.60;;;5.00;99.90;;;;;;5073180;28;20626;-65
2021/10/10 06:13:59;;;;;;;15.17;9.80;;;5.00;99.90;;;;;;5073264;28;20201;-64
2021/10/10 06:16:26;;;;;;;13.17;9.37;;;5.10;99.90;;;;;;5073366;28;20578;-65
2021/10/10 06:18:53;;;;;;;13.87;9.17;;;5.20;99.90;;;;;;5072825;28;20668;-65
2021/10/10 06:21:20;;;;;;;16.00;9.10;;;5.20;99.90;;;;;;5072934;28;20233;-64
2021/10/10 06:23:46;;;;;;;12.53;9.43;;;5.30;99.90;;;;;;5072622;28;20209;-65
2021/10/10 06:26:13;;;;;;;13.73;9.53;;;5.70;99.90;;;;;;5073003;28;20641;-64
2021/10/10 06:28:40;;;;;;;12.83;9.00;;;6.60;99.90;;;;;;5073829;28;20208;-65
2021/10/10 06:31:08;;;;;;;13.30;8.13;;;7.60;99.90;;;;;;5074107;28;20716;-63
2021/10/10 06:33:34;;;;;;;13.43;7.70;;;8.60;99.90;;;;;;5073742;28;20205;-62
2021/10/10 06:36:01;;;;;;;12.37;7.90;;;9.50;99.90;;;;;;5073212;28;20600;-66
2021/10/10 06:38:28;;;;;;;13.57;7.53;;;10.40;99.90;;;;;;5072631;28;20209;-63
2021/10/10 06:40:54;;;;;;;12.90;8.30;;;11.30;99.90;;;;;;5073439;28;20236;-63
2021/10/10 06:43:21;;;;;;;9.87;7.30;;;12.20;99.90;;;;;;5072935;28;20205;-64
2021/10/10 06:45:48;;;;;;;8.07;6.70;;;12.80;99.90;;;;;;5072525;28;20229;-63
2021/10/10 06:48:16;;;;;;;9.07;6.83;;;13.20;99.90;;;;;;5072254;28;20205;-62
2021/10/10 06:50:42;;;;;;;10.03;7.20;;;13.70;99.90;;;;;;5072771;28;20251;-63
2021/10/10 06:53:09;;;;;;;9.77;6.83;;;14.10;99.90;;;;;;5073217;28;20205;-65
2021/10/10 06:55:36;;;;;;;11.87;7.33;;;14.40;99.90;;;;;;5072891;28;20276;-64
2021/10/10 06:58:03;;;;;;;10.53;7.60;;;14.80;99.90;;;;;;5072460;28;20205;-63
2021/10/10 07:00:29;;;;;;;11.13;7.67;;;15.30;99.90;;;;;;5072796;28;20232;-67
2021/10/10 07:02:58;;;;;;;12.70;9.40;;;15.60;99.90;;;;;;5072801;28;20208;-64
2021/10/10 07:05:26;;;;;;;11.43;8.50;;;15.80;99.90;;;;;;5072646;28;20248;-63
2021/10/10 07:07:52;;;;;;;11.30;7.93;;;16.20;99.90;;;;;;5072545;28;20661;-63
2021/10/10 07:10:19;;;;;;;9.33;7.60;;;16.50;99.90;;;;;;5071894;28;20224;-63
2021/10/10 07:12:46;;;;;;;10.33;7.37;;;16.80;99.90;;;;;;5072302;28;20394;-64
2021/10/10 07:15:14;;;;;;;10.27;7.43;;;17.20;99.90;;;;;;5072842;28;20212;-64
2021/10/10 07:17:41;;;;;;;10.30;7.37;;;17.30;99.90;;;;;;5072564;28;20220;-64
2021/10/10 07:20:11;;;;;;;8.10;6.87;;;17.20;99.70;;;;;;5072183;28;20201;-63
2021/10/10 07:22:57;;;;;;;11.10;7.17;;;16.80;99.70;;;;;;5072473;28;20209;-63
2021/10/10 07:25:23;;;;;;;10.50;7.17;;;16.20;99.90;;;;;;5072624;28;20228;-62
2021/10/10 07:27:50;;;;;;;12.10;7.93;;;15.40;99.90;;;;;;5071868;28;20692;-63
2021/10/10 07:30:17;;;;;;;10.50;7.90;;;14.60;99.90;;;;;;5072019;28;20239;-64
2021/10/10 07:32:44;;;;;;;10.93;8.10;;;13.90;99.90;;;;;;5072577;28;20695;-62
2021/10/10 07:35:11;;;;;;;10.23;7.97;;;13.10;99.90;;;;;;5071766;28;20209;-62
2021/10/10 07:37:39;;;;;;;11.07;8.53;;;12.60;99.90;;;;;;5072088;28;20217;-64
2021/10/10 07:40:08;;;;;;;10.87;9.07;;;12.00;99.90;;;;;;5071774;28;20227;-62
2021/10/10 07:42:35;;;;;;;15.40;9.37;;;11.60;99.90;;;;;;5072117;28;20205;-63
2021/10/10 07:45:07;;;;;;;12.47;9.00;;;11.30;99.90;;;;;;5072091;28;20215;-65
2021/10/10 07:47:50;;;;;;;12.90;9.00;;;11.00;99.90;;;;;;5072337;28;20291;-69
2021/10/10 07:50:20;;;;;;;12.30;9.10;;;10.80;99.90;;;;;;5071586;28;20323;-63
2021/10/10 07:52:48;;;;;;;13.70;9.27;;;10.70;99.90;;;;;;5071669;28;20204;-62
2021/10/10 07:55:15;;;;;;;13.60;9.57;;;10.60;99.90;;;;;;5071698;28;20209;-64
2021/10/10 07:57:42;;;;;;;16.00;9.60;;;10.60;99.90;;;;;;5071789;28;20567;-65
2021/10/10 08:00:11;;;;;;;14.43;9.80;;;10.50;99.90;;;;;;5071602;28;20258;-63
2021/10/10 08:02:54;;;;;;;15.03;9.50;;;10.40;99.90;;;;;;5071414;28;20703;-61
2021/10/10 08:05:22;;;;;;;15.57;9.47;;;10.40;99.90;;;;;;5071521;28;20204;-62
2021/10/10 08:07:51;;;;;;;17.53;9.90;;;10.30;99.90;;;;;;5072225;28;20211;-65
2021/10/10 08:10:19;;;;;;;15.17;10.80;;;10.30;99.90;;;;;;5072182;28;20229;-63
2021/10/10 08:12:46;;;;;;;13.37;9.70;;;10.20;99.90;;;;;;5072038;28;20200;-63
2021/10/10 08:15:13;;;;;;;14.47;10.13;;;10.30;99.90;;;;;;5071689;28;20236;-65
2021/10/10 08:17:39;;;;;;;15.13;9.73;;;10.30;99.90;;;;;;5071337;28;20565;-64
2021/10/10 08:20:09;;;;;;;12.13;9.83;;;10.40;99.90;;;;;;5069423;28;20201;-63
2021/10/10 08:22:37;;;;;;;17.53;11.10;;;10.60;99.90;;;;;;5072114;28;20205;-64
2021/10/10 08:25:07;;;;;;;16.13;9.67;;;10.60;99.90;;;;;;5075887;28;20212;-65
2021/10/10 08:27:35;;;;;;;15.93;10.43;;;10.60;99.90;;;;;;5075659;28;20221;-64
2021/10/10 08:30:02;;;;;;;13.33;9.80;;;10.60;99.90;;;;;;5075118;28;20212;-63
2021/10/10 08:32:29;;;;;;;18.90;10.17;;;10.50;99.90;;;;;;5074897;28;20200;-63
2021/10/10 08:34:55;;;;;;;11.97;9.53;;;10.50;99.90;;;;;;5075617;28;20209;-64
2021/10/10 08:37:22;;;;;;;20.57;10.30;;;10.60;99.90;;;;;;5075286;28;20205;-64
2021/10/10 08:39:49;;;;;;;13.67;9.80;;;10.80;99.90;;;;;;5075316;28;20209;-63
2021/10/10 08:42:22;;;;;;;16.10;10.17;;;11.00;99.90;;;;;;5075605;28;20225;-62
2021/10/10 08:44:52;;;;;;;13.30;9.47;;;11.20;99.90;;;;;;5074481;28;20258;-62
2021/10/10 08:47:24;;;;;;;13.10;10.37;;;11.40;99.90;;;;;;5064237;28;20229;-67
2021/10/10 08:49:50;;;;;;;17.17;9.20;;;11.60;99.90;;;;;;5067169;28;20240;-65
2021/10/10 08:52:17;;;;;;;12.83;10.03;;;11.70;99.90;;;;;;5075143;28;20233;-64
2021/10/10 08:54:44;;;;;;;14.80;10.10;;;11.80;99.90;;;;;;5075463;28;20204;-64
2021/10/10 08:57:11;;;;;;;13.60;9.50;;;11.80;99.90;;;;;;5075335;28;20557;-67
2021/10/10 08:59:42;;;;;;;17.93;10.27;;;11.80;99.90;;;;;;5074394;28;20216;-63
2021/10/10 09:02:18;;;;;;;15.53;10.37;;;11.80;99.90;;;;;;5074344;28;20220;-63
2021/10/10 09:04:44;;;;;;;13.93;9.97;;;11.90;99.90;;;;;;5074114;28;20499;-63
2021/10/10 09:07:11;;;;;;;13.50;9.60;;;12.00;99.90;;;;;;5074076;28;20744;-63
2021/10/10 09:09:39;;;;;;;15.63;10.53;;;12.10;99.90;;;;;;5074027;28;20677;-63
2021/10/10 09:12:08;;;;;;;15.07;10.50;;;12.30;99.90;;;;;;5073918;28;20225;-61
2021/10/10 09:14:47;;;;;;;16.53;10.10;;;12.30;99.90;;;;;;5073959;28;20201;-64
2021/10/10 09:17:16;;;;;;;17.70;9.33;;;12.30;99.90;;;;;;5074076;28;20205;-62
2021/10/10 09:19:49;;;;;;;17.70;10.27;;;12.40;99.90;;;;;;5073762;28;20209;-61
2021/10/10 09:22:17;;;;;;;17.10;10.60;;;12.40;99.90;;;;;;5073738;28;20362;-61
2021/10/10 09:24:44;;;;;;;13.53;9.67;;;12.60;99.90;;;;;;5073549;28;20224;-62
2021/10/10 09:27:12;;;;;;;16.20;10.00;;;12.60;99.90;;;;;;5073736;28;20225;-62
2021/10/10 09:29:42;;;;;;;15.03;9.53;;;12.70;99.90;;;;;;5073627;28;20299;-62
2021/10/10 09:32:13;;;;;;;16.80;9.93;;;12.90;99.90;;;;;;5073473;28;20243;-62
2021/10/10 09:34:41;;;;;;;20.07;12.53;;;13.10;99.90;;;;;;5073666;28;20703;-64
2021/10/10 09:37:11;;;;;;;16.90;9.70;;;13.30;99.90;;;;;;5073944;28;20247;-62
2021/10/10 09:39:40;;;;;;;18.10;10.30;;;13.50;99.90;;;;;;5074333;28;20212;-62
2021/10/10 09:42:07;;;;;;;15.67;9.43;;;13.50;99.90;;;;;;5073986;28;20230;-63
2021/10/10 09:44:45;;;;;;;15.07;9.50;;;13.70;99.90;;;;;;5074128;28;20209;-62
2021/10/10 09:47:16;;;;;;;20.17;9.73;;;13.70;99.90;;;;;;5074601;28;20312;-62
2021/10/10 09:49:43;;;;;;;13.00;9.33;;;13.90;99.90;;;;;;5074101;28;20668;-63
2021/10/10 09:52:12;;;;;;;15.83;9.90;;;14.10;99.90;;;;;;5074114;28;20228;-62
2021/10/10 09:54:48;;;;;;;14.53;9.40;;;14.10;99.90;;;;;;5073993;28;20231;-63
2021/10/10 09:57:15;;;;;;;12.27;9.23;;;14.20;99.90;;;;;;5074242;28;20208;-62
2021/10/10 09:59:42;;;;;;;17.07;10.10;;;14.20;99.90;;;;;;5073764;28;20220;-61
2021/10/10 10:02:08;;;;;;;12.43;9.20;;;14.30;99.90;;;;;;5073944;28;20221;-61
2021/10/10 10:04:45;;;;;;;15.30;9.07;;;14.40;99.90;;;;;;5073756;28;20204;-63
2021/10/10 10:07:12;;;;;;;14.23;8.83;;;14.60;99.90;;;;;;5073497;28;20228;-62
2021/10/10 10:09:39;;;;;;;15.40;9.23;;;14.70;99.90;;;;;;5074237;28;20549;-62
2021/10/10 10:12:08;;;;;;;16.30;8.87;;;14.80;99.90;;;;;;5073749;28;20482;-63
2021/10/10 10:14:35;;;;;;;11.53;8.37;;;14.70;99.90;;;;;;5072434;28;20559;-62
2021/10/10 10:17:05;;;;;;;13.63;8.77;;;14.70;99.90;;;;;;5072814;28;20197;-64
2021/10/10 10:19:34;;;;;;;12.67;8.27;;;14.90;99.90;;;;;;5072363;28;20300;-63
2021/10/10 10:22:03;;;;;;;16.00;8.73;;;15.00;99.90;;;;;;5072637;28;20275;-63
2021/10/10 10:24:31;;;;;;;15.40;9.30;;;15.10;99.90;;;;;;5072751;28;20262;-64
2021/10/10 10:26:58;;;;;;;11.33;8.07;;;15.10;99.90;;;;;;5072916;28;20220;-62
2021/10/10 10:29:29;;;;;;;12.17;8.10;;;15.20;99.90;;;;;;5073603;28;20232;-62
2021/10/10 10:31:57;;;;;;;12.87;8.07;;;15.30;99.90;;;;;;5073079;28;20229;-62
2021/10/10 10:34:25;;;;;;;13.30;9.40;;;15.50;99.90;;;;;;5073130;28;20263;-62
2021/10/10 10:36:58;;;;;;;16.53;9.00;;;15.50;99.90;;;;;;5072768;28;20599;-62
2021/10/10 10:39:35;;;;;;;14.10;9.67;;;15.50;99.90;;;;;;5072323;28;20672;-63
2021/10/10 10:42:03;;;;;;;14.67;8.90;;;15.60;99.90;;;;;;5072406;28;20256;-62
2021/10/10 10:44:38;;;;;;;18.93;11.67;;;15.40;99.90;;;;;;5073161;28;20211;-64
2021/10/10 10:47:06;;;;;;;13.87;8.37;;;15.30;99.90;;;;;;5072705;28;20691;-63
2021/10/10 10:49:58;;;;;;;13.33;8.30;;;15.30;99.90;;;;;;5071979;28;20209;-61
2021/10/10 10:52:26;;;;;;;13.70;9.30;;;15.20;99.90;;;;;;5073376;28;20661;-62
2021/10/10 10:54:55;;;;;;;13.57;9.27;;;15.20;99.90;;;;;;5072934;28;20208;-62
2021/10/10 10:57:32;;;;;;;11.07;8.00;;;15.30;99.90;;;;;;5072741;28;20208;-64
2021/10/10 11:00:01;;;;;;;13.83;9.10;;;15.40;99.90;;;;;;5072234;28;20220;-62
2021/10/10 11:02:51;;;;;;;12.77;8.70;;;15.70;99.90;;;;;;5072386;28;20239;-64
2021/10/10 11:05:37;;;;;;;10.77;7.60;;;16.00;99.90;;;;;;5071977;28;20649;-63
2021/10/10 11:08:08;;;;;;;14.33;7.53;;;16.30;99.90;;;;;;5071781;28;20221;-64
2021/10/10 11:10:38;;;;;;;11.90;7.60;;;16.20;99.90;;;;;;5072234;28;20646;-63
2021/10/10 11:13:28;;;;;;;15.17;8.57;;;16.20;99.90;;;;;;5071790;28;20204;-63
2021/10/10 11:15:57;;;;;;;18.57;8.60;;;16.10;99.90;;;;;;5072324;28;20209;-63
2021/10/10 11:18:26;;;;;;;10.93;8.00;;;16.30;99.90;;;;;;5072676;28;20694;-62
2021/10/10 11:20:55;;;;;;;12.83;7.43;;;16.50;99.90;;;;;;5074024;28;20229;-63
2021/10/10 11:23:23;;;;;;;13.23;7.70;;;16.70;99.90;;;;;;5072979;28;20585;-63
2021/10/10 11:25:53;;;;;;;11.97;7.07;;;16.80;99.90;;;;;;5072382;28;20565;-63
2021/10/10 11:28:35;;;;;;;12.57;8.30;;;16.80;98.70;;;;;;5072476;28;20233;-63
2021/10/10 11:31:07;;;;;;;10.23;7.03;;;16.80;99.20;;;;;;5071735;28;20712;-62
2021/10/10 11:33:36;;;;;;;13.07;7.30;;;16.70;98.80;;;;;;5071739;28;20208;-63
2021/10/10 11:36:03;;;;;;;13.37;7.20;;;16.70;99.20;;;;;;5071896;28;20208;-65
2021/10/10 11:38:30;;;;;;;8.43;6.80;;;16.60;99.60;;;;;;5072005;28;20197;-62
2021/10/10 11:41:01;;;;;;;13.23;7.30;;;16.60;98.80;;;;;;5071683;28;20224;-62
2021/10/10 11:43:28;;;;;;;13.17;7.20;;;16.80;98.90;;;;;;5071104;28;20204;-63
2021/10/10 11:45:58;;;;;;;11.30;7.33;;;16.90;98.50;;;;;;5071504;28;20205;-63
2021/10/10 11:48:33;;;;;;;11.47;7.00;;;17.00;97.80;;;;;;5071398;28;20224;-65
2021/10/10 11:51:00;;;;;;;13.10;6.70;;;17.10;97.70;;;;;;5071542;28;20256;-63
2021/10/10 11:53:41;;;;;;;10.03;6.70;;;17.00;97.40;;;;;;5070702;28;20209;-60
2021/10/10 11:56:09;;;;;;;10.53;6.40;;;17.00;97.00;;;;;;5071088;28;20295;-64
2021/10/10 11:58:35;;;;;;;10.33;6.40;;;17.00;96.70;;;;;;5069583;28;20685;-62
2021/10/10 12:01:10;;;;;;;10.93;6.40;;;17.00;96.90;;;;;;5070602;28;20224;-64
2021/10/10 12:03:42;;;;;;;12.83;8.70;;;17.10;97.20;;;;;;5070809;28;20204;-63
2021/10/10 12:06:17;;;;;;;8.67;6.37;;;17.20;96.90;;;;;;5070849;28;20280;-62
2021/10/10 12:08:44;;;;;;;12.60;7.30;;;17.30;96.60;;;;;;5070568;28;20599;-63
2021/10/10 12:11:12;;;;;;;10.30;6.30;;;17.40;96.40;;;;;;5068047;28;20235;-63
2021/10/10 12:13:53;;;;;;;11.07;7.00;;;17.30;96.20;;;;;;5070482;28;20241;-64
2021/10/10 12:16:20;;;;;;;13.20;7.30;;;17.20;96.60;;;;;;5070607;28;20232;-65
2021/10/10 12:18:47;;;;;;;9.10;6.50;;;17.10;96.20;;;;;;5070565;28;20205;-65
2021/10/10 12:21:26;;;;;;;12.70;6.87;;;17.00;96.20;;;;;;5071120;28;20650;-67
2021/10/10 12:24:08;;;;;;;10.27;6.30;;;17.00;96.20;;;;;;5072894;28;20221;-65
2021/10/10 12:26:50;;;;;;;9.60;5.60;;;16.90;95.80;;;;;;5071802;28;20211;-68
2021/10/10 12:29:24;;;;;;;11.27;6.10;;;17.20;95.60;;;;;;5070980;28;20669;-67
2021/10/10 12:31:51;;;;;;;10.50;6.00;;;17.40;94.20;;;;;;5071250;28;20227;-66
2021/10/10 12:34:18;;;;;;;9.82;5.97;;;17.50;94.10;;;;;;5070978;28;20209;-65
2021/10/10 12:36:47;;;;;;;9.90;6.10;;;17.70;93.60;;;;;;5070905;28;20201;-65
2021/10/10 12:39:14;;;;;;;10.17;6.03;;;17.80;94.40;;;;;;5071134;28;20703;-67
2021/10/10 12:41:41;;;;;;;8.13;6.13;;;17.80;93.20;;;;;;5071216;28;20304;-66
2021/10/10 12:44:16;;;;;;;10.88;5.78;;;17.70;93.40;;;;;;5070573;28;20585;-65
2021/10/10 12:46:49;;;;;;;11.45;7.90;;;17.70;93.40;;;;;;5070559;28;20675;-68